Terminal Aerodrome Forecast
Issued by NWS

Home | Current Version | Previous Version | Text Only | Print | Product List | Glossary On
Versions: 1 2 3 4 5 6 7 8 9 10 11 12
433
FTUS44 KTSA 242320
TAFBVO
TAF
KBVO 242320Z 2500/2524 17009G18KT P6SM SCT250
     FM251400 18013G21KT P6SM BKN250=

USA.gov is the U.S. government's official web portal to all federal, state and local government web resources and services.